createdAt,value
2022-11-20T00:01:34.337Z,100563.89
2022-11-20T00:04:03.340Z,100560.41
2022-11-20T00:06:32.019Z,100558.38
2022-11-20T00:09:01.445Z,100560.93
2022-11-20T00:11:30.864Z,100561.55
2022-11-20T00:14:00.682Z,100550.48
2022-11-20T00:16:31.171Z,100539.56
2022-11-20T00:18:59.850Z,100535.33
2022-11-20T00:21:29.493Z,100531.09
2022-11-20T00:23:58.249Z,100532.93
2022-11-20T00:26:27.657Z,100543.85
2022-11-20T00:28:57.521Z,100538.15
2022-11-20T00:31:26.356Z,100525.48
2022-11-20T00:33:54.940Z,100527.39
2022-11-20T00:36:24.751Z,100540.92
2022-11-20T00:38:57.191Z,100550.09
2022-11-20T00:41:26.835Z,100556.31
2022-11-20T00:43:56.239Z,100561.11
2022-11-20T00:46:26.031Z,100566.16
2022-11-20T00:48:54.739Z,100557.91
2022-11-20T00:51:24.043Z,100565.15
2022-11-20T00:53:52.931Z,100570.55
2022-11-20T00:56:21.421Z,100571.70
2022-11-20T00:58:50.511Z,100563.39
2022-11-20T01:01:20.250Z,100553.42
2022-11-20T01:03:50.238Z,100541.34
2022-11-20T01:06:18.772Z,100527.50
2022-11-20T01:08:47.917Z,100514.59
2022-11-20T01:11:18.153Z,100504.04
2022-11-20T01:13:47.451Z,100501.42
2022-11-20T01:16:17.463Z,100496.79
2022-11-20T01:18:48.098Z,100484.13
2022-11-20T01:21:23.808Z,100478.19
2022-11-20T01:23:52.696Z,100475.48
2022-11-20T01:26:22.552Z,100471.13
2022-11-20T01:28:51.509Z,100467.64
2022-11-20T01:31:21.428Z,100465.80
2022-11-20T01:33:51.234Z,100459.33
2022-11-20T01:36:21.081Z,100460.60
2022-11-20T01:38:52.747Z,100453.34
2022-11-20T01:41:40.844Z,100440.66
2022-11-20T01:44:11.846Z,100436.36
2022-11-20T01:46:41.802Z,100442.08
2022-11-20T01:49:21.064Z,100437.55
2022-11-20T01:51:56.107Z,100447.39
2022-11-20T01:54:26.965Z,100452.09
2022-11-20T01:56:56.823Z,100451.39
2022-11-20T01:59:26.721Z,100450.86
2022-11-20T02:01:55.256Z,100460.81
2022-11-20T02:04:24.769Z,100469.19
2022-11-20T02:06:58.986Z,100462.70
2022-11-20T02:09:27.767Z,100464.80
2022-11-20T02:11:56.862Z,100455.70
2022-11-20T02:14:25.962Z,100458.95
2022-11-20T02:16:56.386Z,100446.45
2022-11-20T02:19:27.427Z,100427.54
2022-11-20T02:22:07.026Z,100420.05
2022-11-20T02:24:35.859Z,100425.19
2022-11-20T02:27:14.166Z,100420.64
2022-11-20T02:29:48.695Z,100419.75
2022-11-20T02:32:31.439Z,100417.02
2022-11-20T02:35:07.208Z,100414.85
2022-11-20T02:37:37.140Z,100419.03
2022-11-20T02:40:05.872Z,100409.93
2022-11-20T02:42:34.044Z,100410.61
2022-11-20T02:45:02.625Z,100409.45
2022-11-20T02:47:31.615Z,100402.93
2022-11-20T02:50:00.102Z,100403.13
2022-11-20T02:52:29.001Z,100412.17
2022-11-20T02:54:57.780Z,100416.33
2022-11-20T02:57:26.158Z,100413.92
2022-11-20T02:59:54.845Z,100416.10
2022-11-20T03:02:23.432Z,100414.39
2022-11-20T03:04:51.809Z,100405.27
2022-11-20T03:07:20.715Z,100400.85
2022-11-20T03:09:49.386Z,100394.54
2022-11-20T03:12:18.174Z,100390.08
2022-11-20T03:14:51.559Z,100387.85
2022-11-20T03:17:21.590Z,100394.60
2022-11-20T03:19:50.481Z,100387.39
2022-11-20T03:22:18.908Z,100393.67
2022-11-20T03:24:47.652Z,100397.52
2022-11-20T03:27:16.030Z,100388.32
2022-11-20T03:29:44.543Z,100390.84
2022-11-20T03:32:13.406Z,100394.38
2022-11-20T03:34:41.787Z,100409.42
2022-11-20T03:37:10.666Z,100404.22
2022-11-20T03:39:39.104Z,100403.63
2022-11-20T03:42:27.568Z,100393.89
2022-11-20T03:44:56.312Z,100383.84
2022-11-20T03:47:24.669Z,100380.02
2022-11-20T03:49:53.253Z,100379.16
2022-11-20T03:52:21.788Z,100387.94
2022-11-20T03:54:50.422Z,100397.33
2022-11-20T03:57:18.902Z,100402.84
2022-11-20T03:59:47.384Z,100391.87
2022-11-20T04:02:15.867Z,100395.36
2022-11-20T04:04:44.349Z,100386.66
2022-11-20T04:07:12.939Z,100387.55
2022-11-20T04:09:41.519Z,100385.01
2022-11-20T04:12:10.174Z,100391.71
2022-11-20T04:14:38.584Z,100405.86
2022-11-20T04:17:06.961Z,100411.91
2022-11-20T04:19:35.621Z,100415.05
2022-11-20T04:22:04.129Z,100423.16
2022-11-20T04:24:32.614Z,100433.18
2022-11-20T04:27:01.198Z,100432.26
2022-11-20T04:29:30.087Z,100414.77
2022-11-20T04:31:58.280Z,100401.45
2022-11-20T04:34:26.743Z,100390.45
2022-11-20T04:36:55.428Z,100366.73
2022-11-20T04:39:23.954Z,100365.27
2022-11-20T04:42:12.662Z,100350.79
2022-11-20T04:44:41.461Z,100350.84
2022-11-20T04:47:09.736Z,100346.46
2022-11-20T04:49:38.390Z,100336.47
2022-11-20T04:52:07.036Z,100331.48
2022-11-20T04:54:35.383Z,100351.27
2022-11-20T04:57:03.966Z,100342.58
2022-11-20T04:59:32.860Z,100330.15
2022-11-20T05:02:01.716Z,100328.81
2022-11-20T05:04:30.334Z,100329.61
2022-11-20T05:06:59.065Z,100330.71
2022-11-20T05:09:27.603Z,100325.31
2022-11-20T05:11:55.986Z,100325.34
2022-11-20T05:14:24.541Z,100326.81
2022-11-20T05:16:53.251Z,100327.10
2022-11-20T05:19:22.211Z,100331.88
2022-11-20T05:21:50.932Z,100336.17
2022-11-20T05:24:19.310Z,100343.63
2022-11-20T05:26:48.099Z,100346.17
2022-11-20T05:29:16.581Z,100350.80
2022-11-20T05:31:44.960Z,100352.95
2022-11-20T05:34:13.545Z,100363.32
2022-11-20T05:36:42.129Z,100377.45
2022-11-20T05:39:11.021Z,100399.40
2022-11-20T05:41:39.467Z,100431.52
2022-11-20T05:44:08.188Z,100445.39
2022-11-20T05:46:36.566Z,100443.20
2022-11-20T05:49:05.111Z,100446.23
2022-11-20T05:51:33.938Z,100460.80
2022-11-20T05:54:02.423Z,100465.39
2022-11-20T05:56:31.005Z,100472.98
2022-11-20T05:58:59.588Z,100476.72
2022-11-20T06:01:28.175Z,100482.97
2022-11-20T06:03:56.513Z,100478.23
2022-11-20T06:06:27.289Z,100486.83
2022-11-20T06:08:56.077Z,100490.48
2022-11-20T06:11:24.866Z,100495.81
2022-11-20T06:13:53.345Z,100487.98
2022-11-20T06:16:22.958Z,100492.98
2022-11-20T06:18:51.399Z,100490.27
2022-11-20T06:21:21.045Z,100486.09
2022-11-20T06:23:50.451Z,100495.67
2022-11-20T06:26:22.923Z,100493.79
2022-11-20T06:28:52.341Z,100503.30
2022-11-20T06:31:21.833Z,100510.80
2022-11-20T06:33:50.621Z,100510.10
2022-11-20T06:36:20.435Z,100516.29
2022-11-20T06:38:49.227Z,100524.60
2022-11-20T06:41:19.038Z,100533.61
2022-11-20T06:43:47.887Z,100538.56
2022-11-20T06:46:18.867Z,100541.92
2022-11-20T06:48:47.816Z,100538.27
2022-11-20T06:51:16.757Z,100544.00
2022-11-20T06:53:45.237Z,100546.23
2022-11-20T06:56:13.538Z,100550.95
2022-11-20T06:58:42.096Z,100557.98
2022-11-20T07:01:11.799Z,100559.94
2022-11-20T07:03:40.496Z,100572.70
2022-11-20T07:06:09.691Z,100578.51
2022-11-20T07:08:38.275Z,100587.73
2022-11-20T07:11:07.888Z,100590.67
2022-11-20T07:13:36.262Z,100593.58
2022-11-20T07:16:06.563Z,100592.17
2022-11-20T07:18:34.967Z,100585.51
2022-11-20T07:21:04.475Z,100586.39
2022-11-20T07:23:32.959Z,100579.21
2022-11-20T07:26:08.881Z,100588.97
2022-11-20T07:28:38.010Z,100591.00
2022-11-20T07:31:08.027Z,100574.88
2022-11-20T07:33:36.918Z,100561.88
2022-11-20T07:36:05.811Z,100543.34
2022-11-20T07:38:34.023Z,100525.92
2022-11-20T07:41:05.668Z,100512.42
2022-11-20T07:43:38.469Z,100500.27
2022-11-20T07:46:10.074Z,100501.57
2022-11-20T07:48:38.665Z,100481.96
2022-11-20T07:51:07.043Z,100469.05
2022-11-20T07:53:35.493Z,100475.15
2022-11-20T07:56:04.519Z,100473.91
2022-11-20T07:58:34.175Z,100472.68
2022-11-20T08:01:08.999Z,100452.05
2022-11-20T08:03:40.394Z,100467.47
2022-11-20T08:06:09.400Z,100482.56
2022-11-20T08:08:42.481Z,100489.91
2022-11-20T08:11:30.020Z,100503.36
2022-11-20T08:14:14.288Z,100492.95
2022-11-20T08:16:44.910Z,100504.27
2022-11-20T08:19:14.320Z,100492.42
2022-11-20T08:21:42.996Z,100501.55
2022-11-20T08:24:11.886Z,100498.00
2022-11-20T08:26:40.674Z,100499.84
2022-11-20T08:29:09.049Z,100491.77
2022-11-20T08:31:37.843Z,100476.02
2022-11-20T08:34:26.395Z,100462.75
2022-11-20T08:36:55.900Z,100440.73
2022-11-20T08:39:24.402Z,100423.96
2022-11-20T08:41:52.967Z,100404.88
2022-11-20T08:44:21.507Z,100408.02
2022-11-20T08:46:49.927Z,100446.40
2022-11-20T08:49:19.229Z,100524.71
2022-11-20T08:51:53.242Z,100538.27
2022-11-20T08:54:23.872Z,100554.40
2022-11-20T08:56:52.769Z,100554.38
2022-11-20T08:59:37.262Z,100552.70
2022-11-20T09:02:10.413Z,100547.89
2022-11-20T09:04:38.895Z,100552.67
2022-11-20T09:07:07.420Z,100571.12
2022-11-20T09:09:35.961Z,100568.26
2022-11-20T09:12:04.720Z,100556.05
2022-11-20T09:14:33.541Z,100542.70
2022-11-20T09:17:02.021Z,100539.90
2022-11-20T09:19:37.483Z,100539.31
2022-11-20T09:22:06.463Z,100535.85
2022-11-20T09:24:35.149Z,100524.98
2022-11-20T09:27:04.452Z,100505.32
2022-11-20T09:29:32.966Z,100516.21
2022-11-20T09:32:01.415Z,100519.99
2022-11-20T09:34:29.894Z,100526.67
2022-11-20T09:37:01.485Z,100502.64
2022-11-20T09:39:33.412Z,100497.42
2022-11-20T09:42:01.791Z,100532.21
2022-11-20T09:44:42.561Z,100539.64
2022-11-20T09:47:29.886Z,100561.55
2022-11-20T09:50:05.401Z,100566.59
2022-11-20T09:52:46.100Z,100568.00
2022-11-20T09:55:15.709Z,100555.81
2022-11-20T09:57:46.279Z,100535.45
2022-11-20T10:00:15.646Z,100520.66
2022-11-20T10:02:44.330Z,100517.17
2022-11-20T10:05:16.806Z,100528.48
2022-11-20T10:08:04.253Z,100520.05
2022-11-20T10:10:41.040Z,100513.75
2022-11-20T10:13:29.663Z,100523.38
2022-11-20T10:16:18.374Z,100527.30
2022-11-20T10:18:49.975Z,100523.44
2022-11-20T10:21:37.221Z,100531.52
2022-11-20T10:24:25.201Z,100535.86
2022-11-20T10:27:00.081Z,100533.80
2022-11-20T10:29:36.128Z,100531.30
2022-11-20T10:32:09.468Z,100528.76
2022-11-20T10:34:53.511Z,100528.96
2022-11-20T10:37:26.628Z,100525.09
2022-11-20T10:40:00.984Z,100521.30
2022-11-20T10:42:29.669Z,100514.98
2022-11-20T10:45:11.262Z,100509.05
2022-11-20T10:47:39.943Z,100508.20
2022-11-20T10:50:12.749Z,100503.63
2022-11-20T10:52:52.780Z,100503.38
2022-11-20T10:55:24.411Z,100505.36
2022-11-20T10:58:03.073Z,100495.92
2022-11-20T11:00:34.817Z,100499.52
2022-11-20T11:03:04.423Z,100500.37
2022-11-20T11:05:32.805Z,100505.46
2022-11-20T11:08:01.389Z,100508.61
2022-11-20T11:10:29.973Z,100495.75
2022-11-20T11:12:58.456Z,100498.61
2022-11-20T11:15:28.473Z,100503.33
2022-11-20T11:17:57.584Z,100511.66
2022-11-20T11:20:27.384Z,100512.41
2022-11-20T11:22:59.859Z,100513.54
2022-11-20T11:25:36.021Z,100511.21
2022-11-20T11:28:27.404Z,100505.28
2022-11-20T11:30:57.051Z,100507.03
2022-11-20T11:33:26.772Z,100513.61
2022-11-20T11:35:59.747Z,100507.69
2022-11-20T11:38:35.500Z,100503.24
2022-11-20T11:41:04.766Z,100510.83
2022-11-20T11:43:53.866Z,100527.80
2022-11-20T11:46:26.819Z,100533.89
2022-11-20T11:49:04.623Z,100535.91
2022-11-20T11:51:35.912Z,100524.42
2022-11-20T11:54:06.637Z,100522.81
2022-11-20T11:56:35.530Z,100521.05
2022-11-20T11:59:08.004Z,100534.56
2022-11-20T12:01:37.326Z,100534.42
2022-11-20T12:04:05.993Z,100533.33
2022-11-20T12:06:36.932Z,100525.35
2022-11-20T12:09:12.858Z,100533.13
2022-11-20T12:12:20.211Z,100528.44
2022-11-20T12:15:28.609Z,100532.98
2022-11-20T12:18:36.792Z,100555.21
2022-11-20T12:22:00.287Z,100549.42
2022-11-20T12:25:16.827Z,100521.59
2022-11-20T12:28:14.669Z,100539.16
2022-11-20T12:31:22.952Z,100539.65
2022-11-20T12:34:31.148Z,100517.65
2022-11-20T12:37:24.152Z,100506.42
2022-11-20T12:39:56.832Z,100532.14
2022-11-20T12:43:10.068Z,100544.45
2022-11-20T12:46:08.142Z,100530.87
2022-11-20T12:48:36.827Z,100526.73
2022-11-20T12:51:15.531Z,100527.84
2022-11-20T12:54:00.006Z,100522.10
2022-11-20T12:56:35.572Z,100517.16
2022-11-20T12:59:23.094Z,100521.95
2022-11-20T13:01:54.739Z,100526.79
2022-11-20T13:04:35.407Z,100525.39
2022-11-20T13:07:05.165Z,100522.00
2022-11-20T13:09:35.137Z,100522.52
2022-11-20T13:12:07.612Z,100517.33
2022-11-20T13:14:36.196Z,100499.48
2022-11-20T13:17:06.220Z,100492.10
2022-11-20T13:19:35.471Z,100490.65
2022-11-20T13:22:04.305Z,100486.05
2022-11-20T13:24:33.402Z,100484.55
2022-11-20T13:27:03.317Z,100486.03
2022-11-20T13:29:33.437Z,100487.23
2022-11-20T13:32:08.337Z,100503.60
2022-11-20T13:34:37.494Z,100522.52
2022-11-20T13:37:05.849Z,100533.02
2022-11-20T13:39:35.560Z,100539.20
2022-11-20T13:42:21.391Z,100534.98
2022-11-20T13:44:52.796Z,100524.56
2022-11-20T13:47:23.332Z,100515.17
2022-11-20T13:49:52.734Z,100512.09
2022-11-20T13:52:27.255Z,100504.58
2022-11-20T13:54:58.986Z,100500.92
2022-11-20T13:57:39.708Z,100506.78
2022-11-20T14:00:17.149Z,100525.48
2022-11-20T14:02:49.956Z,100529.66
2022-11-20T14:05:23.150Z,100524.30
2022-11-20T14:08:31.568Z,100521.10
2022-11-20T14:14:57.011Z,100521.36
2022-11-20T14:17:26.615Z,100521.45
2022-11-20T14:19:55.675Z,100526.54
2022-11-20T14:22:25.814Z,100546.75
2022-11-20T14:25:06.909Z,100551.92
2022-11-20T14:27:38.264Z,100533.73
2022-11-20T14:30:07.554Z,100516.39
2022-11-20T14:32:36.452Z,100505.60
2022-11-20T14:35:09.955Z,100514.16
2022-11-20T14:37:39.807Z,100534.84
2022-11-20T14:40:44.667Z,100533.61
2022-11-20T14:43:19.440Z,100524.99
2022-11-20T14:45:50.678Z,100528.17
2022-11-20T14:48:19.161Z,100523.33
2022-11-20T14:50:47.539Z,100518.93
2022-11-20T14:53:23.358Z,100521.30
2022-11-20T14:56:02.221Z,100514.42
2022-11-20T14:58:32.726Z,100511.70
2022-11-20T15:01:02.721Z,100519.79
2022-11-20T15:03:38.716Z,100515.90
2022-11-20T15:06:08.300Z,100508.93
2022-11-20T15:08:36.917Z,100512.90
2022-11-20T15:11:17.912Z,100519.19
2022-11-20T15:13:46.887Z,100520.47
2022-11-20T15:16:19.364Z,100519.36
2022-11-20T15:18:48.057Z,100505.13
2022-11-20T15:21:20.429Z,100496.83
2022-11-20T15:23:49.205Z,100500.02
2022-11-20T15:26:26.911Z,100522.06
2022-11-20T15:28:55.393Z,100542.25
2022-11-20T15:31:25.001Z,100542.48
2022-11-20T15:33:53.385Z,100538.56
2022-11-20T15:36:22.017Z,100544.83
2022-11-20T15:38:50.447Z,100548.98
2022-11-20T15:41:19.032Z,100555.08
2022-11-20T15:43:47.923Z,100562.83
2022-11-20T15:46:17.841Z,100572.48
2022-11-20T15:48:48.610Z,100576.17
2022-11-20T15:51:31.960Z,100574.07
2022-11-20T15:54:00.589Z,100574.54
2022-11-20T15:56:29.173Z,100570.91
2022-11-20T15:58:57.432Z,100566.73
2022-11-20T16:01:25.925Z,100564.88
2022-11-20T16:03:54.592Z,100566.10
2022-11-20T16:06:23.305Z,100571.61
2022-11-20T16:08:51.990Z,100572.07
2022-11-20T16:12:00.310Z,100575.30
2022-11-20T16:15:10.861Z,100566.51
2022-11-20T16:18:21.738Z,100565.64
2022-11-20T16:21:30.082Z,100567.16
2022-11-20T16:24:02.481Z,100565.10
2022-11-20T16:26:43.782Z,100550.92
2022-11-20T16:29:23.340Z,100534.58
2022-11-20T16:32:01.099Z,100537.15
2022-11-20T16:34:39.864Z,100529.44
2022-11-20T16:37:16.608Z,100512.96
2022-11-20T16:39:51.682Z,100503.76
2022-11-20T16:42:34.365Z,100496.05
2022-11-20T16:45:12.876Z,100497.05
2022-11-20T16:47:48.565Z,100507.04
2022-11-20T16:50:26.385Z,100515.80
2022-11-20T16:53:02.120Z,100514.31
2022-11-20T16:55:42.897Z,100506.59
2022-11-20T16:58:20.588Z,100496.92
2022-11-20T17:00:57.681Z,100486.92
2022-11-20T17:03:37.076Z,100482.14
2022-11-20T17:06:20.612Z,100478.27
2022-11-20T17:09:03.611Z,100465.25
2022-11-20T17:11:40.401Z,100456.31
2022-11-20T17:14:22.749Z,100448.04
2022-11-20T17:17:03.652Z,100441.76
2022-11-20T17:19:43.690Z,100434.89
2022-11-20T17:22:22.451Z,100428.52
2022-11-20T17:25:07.832Z,100422.52
2022-11-20T17:27:46.761Z,100422.30
2022-11-20T17:30:24.791Z,100411.13
2022-11-20T17:33:02.564Z,100414.13
2022-11-20T17:35:42.280Z,100431.30
2022-11-20T17:38:17.270Z,100429.41
2022-11-20T17:40:57.436Z,100416.23
2022-11-20T17:43:36.470Z,100407.02
2022-11-20T17:46:15.396Z,100407.06
2022-11-20T17:48:53.180Z,100399.30
2022-11-20T17:51:31.811Z,100388.05
2022-11-20T17:54:12.485Z,100380.69
2022-11-20T17:57:07.452Z,100388.66
2022-11-20T17:59:49.393Z,100383.61
2022-11-20T18:02:30.205Z,100373.99
2022-11-20T18:05:09.732Z,100361.81
2022-11-20T18:07:50.840Z,100350.90
2022-11-20T18:10:24.810Z,100346.02
2022-11-20T18:13:04.953Z,100346.70
2022-11-20T18:15:43.184Z,100343.80
2022-11-20T18:18:24.573Z,100350.28
2022-11-20T18:21:01.797Z,100362.40
2022-11-20T18:23:40.591Z,100365.20
2022-11-20T18:26:18.376Z,100359.33
2022-11-20T18:28:59.501Z,100344.09
2022-11-20T18:31:39.977Z,100335.50
2022-11-20T18:34:18.755Z,100336.23
2022-11-20T18:37:00.758Z,100333.73
2022-11-20T18:39:38.320Z,100333.29
2022-11-20T18:42:37.047Z,100329.88
2022-11-20T18:45:15.978Z,100333.06
2022-11-20T18:47:55.500Z,100349.82
2022-11-20T18:50:36.553Z,100359.75
2022-11-20T18:53:17.348Z,100363.98
2022-11-20T18:55:54.092Z,100376.75
2022-11-20T18:58:31.855Z,100376.11
2022-11-20T19:01:08.697Z,100381.15
2022-11-20T19:03:43.372Z,100406.61
2022-11-20T19:06:21.141Z,100432.59
2022-11-20T19:08:58.893Z,100443.61
2022-11-20T19:11:35.746Z,100444.45
2022-11-20T19:14:15.420Z,100438.55
2022-11-20T19:16:52.322Z,100436.34
2022-11-20T19:19:34.913Z,100445.32
2022-11-20T19:22:12.720Z,100452.88
2022-11-20T19:24:50.483Z,100450.23
2022-11-20T19:27:26.291Z,100449.53
2022-11-20T19:30:05.984Z,100438.14
2022-11-20T19:32:43.751Z,100436.89
2022-11-20T19:35:24.763Z,100431.40
2022-11-20T19:38:05.485Z,100429.38
2022-11-20T19:40:44.026Z,100421.95
2022-11-20T19:43:21.156Z,100427.23
2022-11-20T19:45:59.829Z,100432.88
2022-11-20T19:48:37.397Z,100441.30
2022-11-20T19:51:18.169Z,100447.96
2022-11-20T19:53:56.928Z,100447.39
2022-11-20T19:56:34.689Z,100431.94
2022-11-20T19:59:10.746Z,100423.25
2022-11-20T20:01:48.217Z,100425.91
2022-11-20T20:04:25.934Z,100430.73
2022-11-20T20:07:04.745Z,100429.86
2022-11-20T20:09:42.477Z,100430.34
2022-11-20T20:12:20.500Z,100428.16
2022-11-20T20:14:57.004Z,100419.21
2022-11-20T20:17:35.776Z,100419.89
2022-11-20T20:20:17.501Z,100419.46
2022-11-20T20:22:56.324Z,100424.59
2022-11-20T20:25:34.080Z,100420.09
2022-11-20T20:28:14.432Z,100414.77
2022-11-20T20:30:53.617Z,100418.98
2022-11-20T20:33:35.962Z,100416.81
2022-11-20T20:36:16.148Z,100405.70
2022-11-20T20:38:56.925Z,100392.66
2022-11-20T20:41:34.676Z,100385.80
2022-11-20T20:44:30.236Z,100377.17
2022-11-20T20:47:08.277Z,100381.44
2022-11-20T20:49:48.997Z,100383.58
2022-11-20T20:52:28.663Z,100378.22
2022-11-20T20:55:07.585Z,100379.30
2022-11-20T20:57:47.337Z,100376.22
2022-11-20T21:00:26.685Z,100373.23
2022-11-20T21:03:04.855Z,100377.84
2022-11-20T21:05:45.176Z,100390.05
2022-11-20T21:08:24.368Z,100393.30
2022-11-20T21:11:06.754Z,100381.25
2022-11-20T21:13:45.605Z,100379.24
2022-11-20T21:16:22.679Z,100380.11
2022-11-20T21:19:02.459Z,100376.65
2022-11-20T21:22:01.915Z,100362.83
2022-11-20T21:24:39.091Z,100361.47
2022-11-20T21:27:16.862Z,100347.13
2022-11-20T21:29:52.614Z,100335.27
2022-11-20T21:32:32.328Z,100326.10
2022-11-20T21:35:10.134Z,100325.36
2022-11-20T21:37:50.494Z,100333.83
2022-11-20T21:40:29.680Z,100341.30
2022-11-20T21:43:08.153Z,100341.08
2022-11-20T21:45:46.948Z,100335.79
2022-11-20T21:48:25.001Z,100325.89
2022-11-20T21:51:06.942Z,100328.83
2022-11-20T21:53:45.852Z,100327.62
2022-11-20T21:56:25.129Z,100329.41
2022-11-20T21:59:03.177Z,100336.59
2022-11-20T22:01:42.017Z,100337.20
2022-11-20T22:04:16.723Z,100326.88
2022-11-20T22:06:53.499Z,100321.46
2022-11-20T22:09:35.898Z,100314.36
2022-11-20T22:12:12.394Z,100311.98
2022-11-20T22:14:50.871Z,100315.20
2022-11-20T22:17:49.338Z,100318.95
2022-11-20T22:20:25.528Z,100325.97
2022-11-20T22:23:03.304Z,100320.15
2022-11-20T22:25:45.694Z,100311.46
2022-11-20T22:28:26.490Z,100304.41
2022-11-20T22:31:05.704Z,100293.92
2022-11-20T22:33:42.490Z,100292.95
2022-11-20T22:36:20.278Z,100292.09
2022-11-20T22:38:56.408Z,100291.69
2022-11-20T22:41:32.879Z,100284.52
2022-11-20T22:44:14.683Z,100279.16
2022-11-20T22:46:52.469Z,100272.66
2022-11-20T22:49:32.268Z,100263.34
2022-11-20T22:52:14.083Z,100252.17
2022-11-20T22:54:53.736Z,100249.48
2022-11-20T22:57:34.443Z,100248.80
2022-11-20T23:00:14.529Z,100239.90
2022-11-20T23:02:58.089Z,100232.02
2022-11-20T23:05:39.739Z,100233.27
2022-11-20T23:08:19.814Z,100226.82
2022-11-20T23:10:53.745Z,100228.35
2022-11-20T23:13:30.537Z,100223.70
2022-11-20T23:16:08.333Z,100222.10
2022-11-20T23:18:49.140Z,100211.48
2022-11-20T23:21:24.932Z,100203.63
2022-11-20T23:24:03.468Z,100199.08
2022-11-20T23:26:42.518Z,100192.45
2022-11-20T23:29:22.378Z,100192.36
2022-11-20T23:32:00.316Z,100194.31
2022-11-20T23:34:40.931Z,100190.64
2022-11-20T23:37:18.555Z,100202.56
2022-11-20T23:39:58.572Z,100206.48
2022-11-20T23:42:35.379Z,100199.44
2022-11-20T23:45:12.185Z,100190.08
2022-11-20T23:47:49.764Z,100176.35
2022-11-20T23:50:27.824Z,100163.74
2022-11-20T23:53:08.255Z,100160.73
2022-11-20T23:55:50.253Z,100155.75
2022-11-20T23:58:28.280Z,100163.31
